Airport View

Enter AWOS ICAO identifier for current METAR.

ex. KFNL

KAST 101536Z AUTO 33010KT 10SM FEW006 17/14 A3013

10 Aug 2020 15:55

Frequency: 135.375

Phone: 503-861-1371

Other Area AWOS: KKLS - KTMK - KCLS - KSPB

TAF AMD KAST 101421Z 1014/1112 VRB03KT P6SM SKC FM101600 31004KT 4SM BR BKN005 FM101900 32010KT P6SM SCT008 FM102300 31011G20KT P6SM FEW010 FM110400 31007KT P6SM BKN015